createdAt,value
2023-04-19T00:00:09.561Z,65.50
2023-04-19T00:00:43.113Z,62.65
2023-04-19T00:01:16.117Z,65.20
2023-04-19T00:01:48.095Z,64.43
2023-04-19T00:02:20.503Z,66.00
2023-04-19T00:02:54.365Z,64.97
2023-04-19T00:03:26.735Z,63.08
2023-04-19T00:03:59.012Z,63.88
2023-04-19T00:04:33.780Z,64.32
2023-04-19T00:05:08.774Z,63.75
2023-04-19T00:05:41.484Z,66.30
2023-04-19T00:06:15.206Z,65.97
2023-04-19T00:06:47.422Z,64.95
2023-04-19T00:07:20.413Z,64.82
2023-04-19T00:07:53.404Z,66.47
2023-04-19T00:08:25.973Z,65.85
2023-04-19T00:08:57.962Z,65.63
2023-04-19T00:09:30.951Z,65.50
2023-04-19T00:10:03.526Z,65.32
2023-04-19T00:10:36.017Z,64.85
2023-04-19T00:11:09.184Z,65.75
2023-04-19T00:11:41.496Z,67.07
2023-04-19T00:12:13.547Z,65.18
2023-04-19T00:12:46.590Z,65.10
2023-04-19T00:13:18.505Z,65.57
2023-04-19T00:13:50.473Z,65.85
2023-04-19T00:14:22.524Z,65.65
2023-04-19T00:14:55.439Z,65.25
2023-04-19T00:15:27.390Z,65.40
2023-04-19T00:15:59.359Z,65.88
2023-04-19T00:16:32.547Z,64.57
2023-04-19T00:17:04.651Z,66.90
2023-04-19T00:17:36.789Z,65.00
2023-04-19T00:18:09.803Z,64.38
2023-04-19T00:18:41.822Z,66.20
2023-04-19T00:19:13.739Z,66.85
2023-04-19T00:19:46.965Z,66.28
2023-04-19T00:20:20.964Z,65.97
2023-04-19T00:20:52.963Z,66.53
2023-04-19T00:21:26.231Z,66.07
2023-04-19T00:21:58.169Z,66.38
2023-04-19T00:22:30.120Z,65.45
2023-04-19T00:23:02.163Z,65.88
2023-04-19T00:23:35.332Z,65.20
2023-04-19T00:24:07.398Z,66.43
2023-04-19T00:24:39.407Z,66.28
2023-04-19T00:25:12.302Z,64.95
2023-04-19T00:25:45.813Z,67.38
2023-04-19T00:26:17.809Z,65.10
2023-04-19T00:26:55.467Z,65.93
2023-04-19T00:27:27.812Z,66.20
2023-04-19T00:27:59.738Z,66.00
2023-04-19T00:28:33.597Z,65.90
2023-04-19T00:29:06.547Z,64.53
2023-04-19T00:29:38.625Z,65.95
2023-04-19T00:30:11.552Z,65.93
2023-04-19T00:30:43.602Z,64.32
2023-04-19T00:31:17.056Z,65.78
2023-04-19T00:31:49.020Z,66.45
2023-04-19T00:32:21.096Z,65.25
2023-04-19T00:32:54.269Z,65.57
2023-04-19T00:33:26.259Z,65.68
2023-04-19T00:33:58.200Z,65.63
2023-04-19T00:34:33.027Z,65.22
2023-04-19T00:35:05.591Z,67.13
2023-04-19T00:35:39.902Z,66.22
2023-04-19T00:36:12.839Z,66.85
2023-04-19T00:36:44.770Z,65.97
2023-04-19T00:37:18.141Z,65.30
2023-04-19T00:37:51.077Z,65.93
2023-04-19T00:38:23.110Z,66.65
2023-04-19T00:38:55.079Z,66.28
2023-04-19T00:39:28.039Z,65.47
2023-04-19T00:40:00.013Z,64.97
2023-04-19T00:40:32.666Z,65.30
2023-04-19T00:41:05.714Z,64.78
2023-04-19T00:41:37.668Z,62.67
2023-04-19T00:42:09.638Z,66.97
2023-04-19T00:42:43.295Z,66.15
2023-04-19T00:43:18.725Z,65.78
2023-04-19T00:43:50.624Z,65.97
2023-04-19T00:44:23.540Z,66.28
2023-04-19T00:44:55.476Z,65.65
2023-04-19T00:45:27.374Z,64.18
2023-04-19T00:46:00.375Z,63.95
2023-04-19T00:46:32.805Z,65.35
2023-04-19T00:47:05.441Z,67.05
2023-04-19T00:47:39.255Z,65.32
2023-04-19T00:48:11.639Z,66.18
2023-04-19T00:48:43.836Z,65.07
2023-04-19T00:49:18.812Z,66.25
2023-04-19T00:49:50.875Z,64.35
2023-04-19T00:50:23.035Z,64.65
2023-04-19T00:50:57.586Z,64.57
2023-04-19T00:51:29.862Z,64.25
2023-04-19T00:52:01.877Z,63.42
2023-04-19T00:52:35.323Z,62.63
2023-04-19T00:53:09.095Z,65.45
2023-04-19T00:53:41.510Z,64.82
2023-04-19T00:54:15.385Z,64.85
2023-04-19T00:54:47.859Z,65.57
2023-04-19T00:55:19.980Z,65.18
2023-04-19T00:55:53.219Z,65.35
2023-04-19T00:56:27.293Z,65.70
2023-04-19T00:56:59.284Z,64.82
2023-04-19T00:57:31.711Z,63.03
2023-04-19T00:58:04.612Z,65.55
2023-04-19T00:58:38.682Z,65.90
2023-04-19T00:59:11.141Z,64.10
2023-04-19T00:59:43.226Z,66.13
2023-04-19T01:00:16.716Z,65.40
2023-04-19T01:00:49.675Z,66.20
2023-04-19T01:01:21.867Z,65.97
2023-04-19T01:01:56.018Z,64.85
2023-04-19T01:02:28.620Z,65.20
2023-04-19T01:03:01.245Z,63.78
2023-04-19T01:03:35.046Z,63.72
2023-04-19T01:04:08.060Z,65.75
2023-04-19T01:04:40.360Z,64.72
2023-04-19T01:05:13.561Z,66.20
2023-04-19T01:05:45.572Z,65.93
2023-04-19T01:06:19.589Z,67.07
2023-04-19T01:06:52.614Z,61.92
2023-04-19T01:07:24.590Z,64.07
2023-04-19T01:07:56.564Z,65.20
2023-04-19T01:08:29.474Z,62.83
2023-04-19T01:09:01.528Z,65.85
2023-04-19T01:09:33.456Z,63.58
2023-04-19T01:10:07.051Z,66.90
2023-04-19T01:10:39.035Z,66.20
2023-04-19T01:11:11.123Z,64.10
2023-04-19T01:11:44.078Z,66.32
2023-04-19T01:12:16.073Z,64.43
2023-04-19T01:12:48.273Z,65.68
2023-04-19T01:13:20.242Z,66.50
2023-04-19T01:13:54.533Z,64.40
2023-04-19T01:14:26.550Z,63.80
2023-04-19T01:14:58.561Z,63.47
2023-04-19T01:15:32.219Z,64.43
2023-04-19T01:16:04.642Z,66.32
2023-04-19T01:16:36.647Z,66.05
2023-04-19T01:17:08.602Z,67.47
2023-04-19T01:17:42.263Z,66.03
2023-04-19T01:18:14.259Z,65.60
2023-04-19T01:18:47.915Z,63.85
2023-04-19T01:19:21.313Z,66.30
2023-04-19T01:19:59.815Z,64.45
2023-04-19T01:20:31.746Z,64.53
2023-04-19T01:21:04.017Z,65.68
2023-04-19T01:21:40.183Z,63.95
2023-04-19T01:22:18.289Z,65.55
2023-04-19T01:22:50.261Z,65.03
2023-04-19T01:23:23.253Z,65.45
2023-04-19T01:23:55.308Z,64.95
2023-04-19T01:24:27.922Z,63.00
2023-04-19T01:25:00.948Z,64.25
2023-04-19T01:25:32.918Z,66.18
2023-04-19T01:26:05.486Z,64.78
2023-04-19T01:26:38.445Z,62.50
2023-04-19T01:27:11.340Z,65.55
2023-04-19T01:27:44.352Z,65.63
2023-04-19T01:28:17.392Z,65.50
2023-04-19T01:28:49.596Z,64.78
2023-04-19T01:29:22.127Z,66.50
2023-04-19T01:29:54.085Z,64.78
2023-04-19T01:30:26.972Z,65.63
2023-04-19T01:31:00.798Z,65.47
2023-04-19T01:31:32.892Z,65.78
2023-04-19T01:32:05.352Z,64.88
2023-04-19T01:32:38.497Z,62.40
2023-04-19T01:33:10.532Z,64.65
2023-04-19T01:33:42.492Z,65.53
2023-04-19T01:34:15.013Z,62.83
2023-04-19T01:34:49.314Z,62.28
2023-04-19T01:35:21.514Z,66.13
2023-04-19T01:35:53.426Z,63.83
2023-04-19T01:36:27.765Z,64.78
2023-04-19T01:36:59.681Z,64.88
2023-04-19T01:37:35.405Z,64.15
2023-04-19T01:38:08.380Z,66.15
2023-04-19T01:38:40.473Z,65.97
2023-04-19T01:39:14.801Z,63.60
2023-04-19T01:39:47.975Z,65.07
2023-04-19T01:40:20.489Z,66.03
2023-04-19T01:40:52.429Z,65.73
2023-04-19T01:41:27.229Z,66.35
2023-04-19T01:41:59.375Z,66.18
2023-04-19T01:42:31.353Z,63.72
2023-04-19T01:43:07.522Z,63.75
2023-04-19T01:43:39.541Z,67.28
2023-04-19T01:44:12.385Z,62.13
2023-04-19T01:44:44.561Z,65.00
2023-04-19T01:45:17.666Z,64.82
2023-04-19T01:45:49.563Z,65.20
2023-04-19T01:46:21.497Z,66.05
2023-04-19T01:46:55.070Z,64.32
2023-04-19T01:47:27.697Z,63.90
2023-04-19T01:47:59.756Z,65.22
2023-04-19T01:48:32.939Z,63.85
2023-04-19T01:49:05.423Z,63.28
2023-04-19T01:49:37.464Z,66.25
2023-04-19T01:50:11.172Z,63.90
2023-04-19T01:50:43.156Z,65.10
2023-04-19T01:51:17.383Z,64.05
2023-04-19T01:51:50.650Z,66.35
2023-04-19T01:52:22.592Z,64.73
2023-04-19T01:52:55.972Z,63.20
2023-04-19T01:53:28.908Z,61.08
2023-04-19T01:54:02.557Z,64.32
2023-04-19T01:54:34.569Z,63.80
2023-04-19T01:55:06.888Z,65.53
2023-04-19T01:55:39.946Z,64.30
2023-04-19T01:56:11.841Z,63.30
2023-04-19T01:56:43.791Z,64.15
2023-04-19T01:57:18.822Z,66.22
2023-04-19T01:57:54.481Z,65.63
2023-04-19T01:58:26.730Z,62.58
2023-04-19T01:59:00.446Z,63.42
2023-04-19T01:59:32.417Z,64.85
2023-04-19T02:00:05.178Z,65.88
2023-04-19T02:00:47.330Z,66.65
2023-04-19T02:01:19.507Z,66.55
2023-04-19T02:01:51.575Z,65.60
2023-04-19T02:02:24.694Z,64.28
2023-04-19T02:02:56.934Z,65.63
2023-04-19T02:03:29.180Z,63.08
2023-04-19T02:04:03.830Z,65.38
2023-04-19T02:04:37.529Z,66.25
2023-04-19T02:05:11.532Z,66.30
2023-04-19T02:05:44.482Z,65.32
2023-04-19T02:06:16.406Z,65.20
2023-04-19T02:06:48.393Z,65.88
2023-04-19T02:07:21.372Z,64.45
2023-04-19T02:07:53.283Z,66.55
2023-04-19T02:08:27.721Z,65.35
2023-04-19T02:09:00.952Z,65.93
2023-04-19T02:09:35.803Z,65.20
2023-04-19T02:10:10.235Z,63.95
2023-04-19T02:10:43.161Z,65.28
2023-04-19T02:11:15.178Z,67.60
2023-04-19T02:11:47.141Z,66.25
2023-04-19T02:12:20.275Z,66.13
2023-04-19T02:12:52.483Z,66.88
2023-04-19T02:13:24.475Z,65.97
2023-04-19T02:13:57.489Z,66.68
2023-04-19T02:14:29.514Z,65.68
2023-04-19T02:15:02.169Z,66.50
2023-04-19T02:15:38.154Z,64.70
2023-04-19T02:16:10.904Z,66.38
2023-04-19T02:16:43.165Z,64.23
2023-04-19T02:17:16.150Z,66.50
2023-04-19T02:17:48.138Z,65.40
2023-04-19T02:18:20.672Z,66.60
2023-04-19T02:18:53.694Z,66.22
2023-04-19T02:19:25.759Z,65.60
2023-04-19T02:19:57.708Z,66.78
2023-04-19T02:20:31.254Z,63.53
2023-04-19T02:21:03.564Z,66.55
2023-04-19T02:21:35.682Z,67.38
2023-04-19T02:22:08.651Z,67.07
2023-04-19T02:22:40.698Z,66.53
2023-04-19T02:23:12.878Z,66.28
2023-04-19T02:23:47.385Z,66.38
2023-04-19T02:24:19.513Z,66.50
2023-04-19T02:24:51.558Z,67.32
2023-04-19T02:25:24.632Z,65.10
2023-04-19T02:25:57.122Z,65.57
2023-04-19T02:26:29.123Z,66.20
2023-04-19T02:27:02.082Z,66.60
2023-04-19T02:27:34.068Z,67.30
2023-04-19T02:28:06.128Z,67.22
2023-04-19T02:28:39.200Z,66.22
2023-04-19T02:29:11.161Z,67.65
2023-04-19T02:29:44.399Z,67.03
2023-04-19T02:30:17.445Z,66.82
2023-04-19T02:30:49.383Z,67.47
2023-04-19T02:31:21.535Z,66.68
2023-04-19T02:31:54.646Z,68.45
2023-04-19T02:32:26.902Z,67.18
2023-04-19T02:32:58.942Z,67.65
2023-04-19T02:33:30.937Z,66.32
2023-04-19T02:34:06.563Z,66.35
2023-04-19T02:34:38.797Z,65.22
2023-04-19T02:35:12.546Z,67.25
2023-04-19T02:35:45.526Z,67.30
2023-04-19T02:36:17.451Z,66.13
2023-04-19T02:36:49.384Z,66.18
2023-04-19T02:37:22.541Z,66.43
2023-04-19T02:37:54.524Z,66.78
2023-04-19T02:38:26.460Z,65.82
2023-04-19T02:39:01.378Z,65.53
2023-04-19T02:39:34.378Z,64.67
2023-04-19T02:40:07.921Z,67.45
2023-04-19T02:40:41.003Z,66.90
2023-04-19T02:41:12.945Z,65.57
2023-04-19T02:41:45.144Z,64.72
2023-04-19T02:42:18.090Z,63.60
2023-04-19T02:42:50.072Z,64.97
2023-04-19T02:43:22.148Z,63.72
2023-04-19T02:43:55.106Z,63.67
2023-04-19T02:44:27.647Z,65.30
2023-04-19T02:44:59.681Z,67.18
2023-04-19T02:45:32.623Z,66.00
2023-04-19T02:46:04.645Z,65.65
2023-04-19T02:46:37.740Z,65.40
2023-04-19T02:47:09.791Z,65.03
2023-04-19T02:47:41.870Z,65.13
2023-04-19T02:48:14.049Z,65.90
2023-04-19T02:48:47.012Z,65.95
2023-04-19T02:49:20.139Z,67.22
2023-04-19T02:49:52.293Z,66.15
2023-04-19T02:50:27.072Z,66.55
2023-04-19T02:50:59.186Z,66.68
2023-04-19T02:51:31.504Z,67.15
2023-04-19T02:52:04.984Z,66.60
2023-04-19T02:52:38.449Z,66.43
2023-04-19T02:53:10.581Z,65.55
2023-04-19T02:53:43.905Z,67.18
2023-04-19T02:54:17.542Z,68.03
2023-04-19T02:54:50.759Z,66.85
2023-04-19T02:55:23.797Z,65.43
2023-04-19T02:56:04.936Z,66.82
2023-04-19T02:56:36.942Z,66.75
2023-04-19T02:57:09.997Z,66.38
2023-04-19T02:57:43.398Z,66.95
2023-04-19T02:58:16.331Z,67.72
2023-04-19T02:59:02.128Z,66.40
2023-04-19T02:59:34.676Z,69.07
2023-04-19T03:00:10.435Z,67.05
2023-04-19T03:00:45.645Z,66.15
2023-04-19T03:01:21.344Z,66.90
2023-04-19T03:01:53.330Z,68.10
2023-04-19T03:02:27.094Z,66.15
2023-04-19T03:03:00.772Z,67.38
2023-04-19T03:03:33.806Z,66.57
2023-04-19T03:04:07.055Z,64.93
2023-04-19T03:04:39.190Z,65.53
2023-04-19T03:05:11.698Z,65.78
2023-04-19T03:05:43.692Z,65.55
2023-04-19T03:06:16.954Z,64.43
2023-04-19T03:06:49.009Z,66.03
2023-04-19T03:07:21.048Z,66.68
2023-04-19T03:07:53.982Z,66.50
2023-04-19T03:08:25.992Z,66.07
2023-04-19T03:08:57.951Z,66.45
2023-04-19T03:09:32.597Z,64.15
2023-04-19T03:10:05.550Z,65.07
2023-04-19T03:10:37.681Z,63.15
2023-04-19T03:11:12.768Z,66.03
2023-04-19T03:11:44.708Z,66.18
2023-04-19T03:12:16.859Z,65.32
2023-04-19T03:12:49.910Z,66.07
2023-04-19T03:13:22.202Z,62.78
2023-04-19T03:13:54.122Z,66.20
2023-04-19T03:14:27.106Z,67.88
2023-04-19T03:14:59.207Z,65.05
2023-04-19T03:15:31.452Z,62.72
2023-04-19T03:16:04.675Z,64.45
2023-04-19T03:16:38.466Z,65.95
2023-04-19T03:17:11.084Z,67.07
2023-04-19T03:17:44.117Z,65.43
2023-04-19T03:18:17.261Z,62.90
2023-04-19T03:18:49.563Z,65.25
2023-04-19T03:19:25.578Z,62.28
2023-04-19T03:19:57.768Z,62.88
2023-04-19T03:20:29.853Z,61.72
2023-04-19T03:21:03.933Z,63.50
2023-04-19T03:21:43.185Z,62.85
2023-04-19T03:22:15.561Z,63.25
2023-04-19T03:22:49.238Z,61.15
2023-04-19T03:23:21.697Z,63.38
2023-04-19T03:23:55.209Z,63.42
2023-04-19T03:24:30.122Z,62.22
2023-04-19T03:25:07.013Z,61.45
2023-04-19T03:25:40.471Z,62.45
2023-04-19T03:26:24.472Z,61.00
2023-04-19T03:26:58.862Z,60.37
2023-04-19T03:27:35.822Z,60.70
2023-04-19T03:28:13.050Z,62.20
2023-04-19T03:29:11.022Z,61.05
2023-04-19T03:29:56.757Z,60.03
2023-04-19T03:30:35.508Z,61.85
2023-04-19T03:31:10.801Z,59.28
2023-04-19T03:31:43.404Z,62.72
2023-04-19T03:32:18.612Z,61.33
2023-04-19T03:32:52.056Z,60.83
2023-04-19T03:33:29.292Z,60.00
2023-04-19T03:34:02.687Z,59.95
2023-04-19T03:34:41.428Z,60.85
2023-04-19T03:35:14.411Z,61.28
2023-04-19T03:35:47.264Z,59.42
2023-04-19T03:36:20.559Z,60.53
2023-04-19T03:36:52.692Z,59.35
2023-04-19T03:37:24.730Z,60.08
2023-04-19T03:37:58.247Z,60.13
2023-04-19T03:38:30.923Z,60.40
2023-04-19T03:39:03.693Z,61.60
2023-04-19T03:39:36.652Z,59.10
2023-04-19T03:40:13.166Z,60.35
2023-04-19T03:40:45.245Z,60.97
2023-04-19T03:41:21.901Z,61.65
2023-04-19T03:41:58.402Z,58.78
2023-04-19T03:42:46.096Z,60.63
2023-04-19T03:43:25.746Z,60.42
2023-04-19T03:43:58.200Z,61.28
2023-04-19T03:44:33.363Z,62.75
2023-04-19T03:45:08.452Z,61.17
2023-04-19T03:45:46.397Z,60.40
2023-04-19T03:46:18.479Z,61.25
2023-04-19T03:46:50.725Z,60.20
2023-04-19T03:47:28.443Z,60.42
2023-04-19T03:48:03.347Z,61.33
2023-04-19T03:48:35.956Z,60.63
2023-04-19T03:49:08.077Z,62.47
2023-04-19T03:49:44.202Z,60.40
2023-04-19T03:50:17.720Z,62.35
2023-04-19T03:50:53.034Z,61.80
2023-04-19T03:51:27.191Z,62.38
2023-04-19T03:51:59.348Z,61.83
2023-04-19T03:52:32.386Z,62.35
2023-04-19T03:53:05.917Z,62.90
2023-04-19T03:53:38.175Z,61.83
2023-04-19T03:54:10.405Z,62.92
2023-04-19T03:54:43.927Z,62.15
2023-04-19T03:55:29.122Z,61.80
2023-04-19T03:56:02.359Z,60.30
2023-04-19T03:56:35.118Z,60.33
2023-04-19T03:57:07.525Z,61.20
2023-04-19T03:57:44.289Z,62.25
2023-04-19T03:58:24.815Z,60.45
2023-04-19T03:59:03.497Z,60.42
2023-04-19T03:59:39.223Z,60.22
2023-04-19T04:00:12.185Z,59.97
2023-04-19T04:00:46.678Z,60.78
2023-04-19T04:01:21.314Z,61.38
2023-04-19T04:01:55.058Z,59.30
2023-04-19T04:02:27.973Z,60.67
2023-04-19T04:03:01.274Z,62.00
2023-04-19T04:03:34.054Z,61.03
2023-04-19T04:04:07.481Z,62.10
2023-04-19T04:04:40.764Z,61.20
2023-04-19T04:05:14.307Z,61.00
2023-04-19T04:05:46.742Z,61.03
2023-04-19T04:06:19.806Z,60.30
2023-04-19T04:06:52.576Z,60.65
2023-04-19T04:07:24.758Z,60.70
2023-04-19T04:07:58.110Z,60.88
2023-04-19T04:08:31.311Z,60.53
2023-04-19T04:09:03.891Z,61.28
2023-04-19T04:09:37.130Z,60.10
2023-04-19T04:10:09.723Z,60.60
2023-04-19T04:10:48.170Z,59.28
2023-04-19T04:11:21.480Z,58.67
2023-04-19T04:11:54.250Z,61.35
2023-04-19T04:12:26.722Z,60.35
2023-04-19T04:13:01.257Z,60.83
2023-04-19T04:13:43.384Z,60.53
2023-04-19T04:14:25.028Z,59.35
2023-04-19T04:14:56.978Z,59.75
2023-04-19T04:15:29.165Z,59.53
2023-04-19T04:16:03.040Z,58.47
2023-04-19T04:16:35.025Z,58.42
2023-04-19T04:17:08.212Z,58.85
2023-04-19T04:17:40.808Z,57.92
2023-04-19T04:18:12.846Z,59.03
2023-04-19T04:18:46.073Z,60.03
2023-04-19T04:19:21.889Z,59.50
2023-04-19T04:19:54.818Z,58.40
2023-04-19T04:20:30.535Z,61.33
2023-04-19T04:21:08.773Z,60.13
2023-04-19T04:21:43.065Z,58.80
2023-04-19T04:22:17.573Z,60.53
2023-04-19T04:22:49.517Z,60.33
2023-04-19T04:23:25.691Z,59.27
2023-04-19T04:24:01.863Z,59.40
2023-04-19T04:24:42.938Z,59.33
2023-04-19T04:25:33.086Z,60.22
2023-04-19T04:26:10.046Z,60.53
2023-04-19T04:27:03.265Z,60.38
2023-04-19T04:27:39.430Z,59.75
2023-04-19T04:28:15.214Z,59.53
2023-04-19T04:28:48.323Z,61.45
2023-04-19T04:29:20.908Z,59.60
2023-04-19T04:29:56.733Z,59.63
2023-04-19T04:30:30.206Z,58.70
2023-04-19T04:31:04.075Z,58.88
2023-04-19T04:31:38.224Z,59.45
2023-04-19T04:32:11.538Z,58.55
2023-04-19T04:32:47.596Z,60.65
2023-04-19T04:33:20.076Z,59.47
2023-04-19T04:33:54.846Z,60.42
2023-04-19T04:34:27.345Z,60.35
2023-04-19T04:35:10.762Z,59.22
2023-04-19T04:35:49.396Z,59.28
2023-04-19T04:36:29.703Z,59.28
2023-04-19T04:37:03.681Z,61.95
2023-04-19T04:37:37.007Z,60.45
2023-04-19T04:38:21.402Z,61.28
2023-04-19T04:38:57.606Z,58.78
2023-04-19T04:39:30.138Z,59.85
2023-04-19T04:40:04.913Z,61.65
2023-04-19T04:40:38.682Z,59.67
2023-04-19T04:41:12.476Z,59.75
2023-04-19T04:41:53.655Z,59.58
2023-04-19T04:42:27.612Z,60.90
2023-04-19T04:43:00.950Z,59.25
2023-04-19T04:43:34.588Z,58.90
2023-04-19T04:44:22.580Z,60.75
2023-04-19T04:44:57.982Z,59.92
2023-04-19T04:45:32.219Z,59.55
2023-04-19T04:46:04.377Z,60.03
2023-04-19T04:46:41.233Z,59.58
2023-04-19T04:47:15.959Z,60.30
2023-04-19T04:47:53.847Z,60.75
2023-04-19T04:48:26.428Z,60.25
2023-04-19T04:48:59.442Z,60.30
2023-04-19T04:49:31.338Z,60.75
2023-04-19T04:50:05.094Z,61.17
2023-04-19T04:50:38.766Z,60.60
2023-04-19T04:51:11.060Z,61.05
2023-04-19T04:51:44.417Z,60.00
2023-04-19T04:52:17.424Z,59.75
2023-04-19T04:53:00.699Z,60.78
2023-04-19T04:53:37.070Z,61.83
2023-04-19T04:54:10.915Z,61.17
2023-04-19T04:54:43.568Z,61.22
2023-04-19T04:55:26.154Z,61.13
2023-04-19T04:55:58.408Z,61.25
2023-04-19T04:56:31.899Z,60.97
2023-04-19T04:57:05.419Z,61.33
2023-04-19T04:57:37.414Z,60.05
2023-04-19T04:58:10.842Z,61.08
2023-04-19T04:58:57.092Z,61.13
2023-04-19T04:59:34.763Z,59.10
2023-04-19T05:00:09.614Z,59.97
2023-04-19T05:00:50.082Z,60.67
2023-04-19T05:01:24.017Z,58.72
2023-04-19T05:01:57.058Z,59.80
2023-04-19T05:02:31.256Z,60.25
2023-04-19T05:03:03.638Z,60.35
2023-04-19T05:03:39.885Z,60.17
2023-04-19T05:04:16.342Z,60.10
2023-04-19T05:04:48.651Z,58.65
2023-04-19T05:05:21.808Z,60.17
2023-04-19T05:05:54.328Z,61.43
2023-04-19T05:06:26.617Z,61.57
2023-04-19T05:06:59.925Z,59.13
2023-04-19T05:07:33.238Z,60.83
2023-04-19T05:08:07.517Z,61.03
2023-04-19T05:08:40.414Z,61.25
2023-04-19T05:09:21.420Z,60.78
2023-04-19T05:09:54.404Z,59.92
2023-04-19T05:10:32.671Z,60.58
2023-04-19T05:11:04.706Z,60.95
2023-04-19T05:11:43.341Z,61.25
2023-04-19T05:12:15.419Z,59.63
2023-04-19T05:12:47.390Z,58.90
2023-04-19T05:13:20.746Z,61.00
2023-04-19T05:13:56.743Z,60.35
2023-04-19T05:14:28.956Z,60.47
2023-04-19T05:15:02.059Z,60.92
2023-04-19T05:15:34.358Z,60.20
2023-04-19T05:16:07.648Z,59.00
2023-04-19T05:16:40.350Z,60.10
2023-04-19T05:17:12.818Z,59.17
2023-04-19T05:17:45.942Z,60.30
2023-04-19T05:18:18.842Z,60.00
2023-04-19T05:18:51.854Z,59.30
2023-04-19T05:19:24.144Z,59.20
2023-04-19T05:20:02.073Z,58.70
2023-04-19T05:20:35.860Z,61.92
2023-04-19T05:21:17.471Z,60.30
2023-04-19T05:21:49.476Z,60.08
2023-04-19T05:22:23.041Z,60.97
2023-04-19T05:22:58.146Z,60.53
2023-04-19T05:23:30.082Z,60.63
2023-04-19T05:24:04.293Z,59.95
2023-04-19T05:24:36.541Z,61.45
2023-04-19T05:25:10.648Z,61.88
2023-04-19T05:25:44.360Z,62.05
2023-04-19T05:26:16.632Z,63.50
2023-04-19T05:26:51.162Z,62.72
2023-04-19T05:27:24.378Z,65.40
2023-04-19T05:27:57.831Z,64.32
2023-04-19T05:28:31.891Z,62.03
2023-04-19T05:29:10.658Z,62.63
2023-04-19T05:29:52.303Z,62.63
2023-04-19T05:30:24.578Z,62.20
2023-04-19T05:30:56.826Z,62.25
2023-04-19T05:31:36.873Z,62.90
2023-04-19T05:32:22.439Z,59.28
2023-04-19T05:33:00.367Z,60.85
2023-04-19T05:33:32.863Z,61.90
2023-04-19T05:34:05.632Z,61.80
2023-04-19T05:34:38.655Z,61.35
2023-04-19T05:35:11.266Z,59.40
2023-04-19T05:35:44.258Z,60.08
2023-04-19T05:36:16.721Z,61.20
2023-04-19T05:36:49.850Z,59.20
2023-04-19T05:37:24.141Z,61.30
2023-04-19T05:37:56.234Z,61.80
2023-04-19T05:38:29.614Z,62.28
2023-04-19T05:39:05.002Z,59.88
2023-04-19T05:39:37.031Z,61.05
2023-04-19T05:40:10.178Z,60.17
2023-04-19T05:40:43.238Z,59.45
2023-04-19T05:41:15.999Z,59.58
2023-04-19T05:41:49.742Z,58.83
2023-04-19T05:42:22.847Z,59.55
2023-04-19T05:42:54.773Z,60.17
2023-04-19T05:43:26.906Z,59.55
2023-04-19T05:43:59.829Z,59.00
2023-04-19T05:44:31.916Z,61.78
2023-04-19T05:45:06.307Z,60.78
2023-04-19T05:45:38.783Z,61.30
2023-04-19T05:46:12.383Z,61.53
2023-04-19T05:46:44.324Z,62.70
2023-04-19T05:47:18.878Z,61.25
2023-04-19T05:48:17.745Z,60.42
2023-04-19T05:48:49.702Z,62.60
2023-04-19T05:49:41.381Z,60.15
2023-04-19T05:50:31.222Z,60.38
2023-04-19T05:51:26.419Z,59.30
2023-04-19T05:52:12.084Z,61.33
2023-04-19T05:52:49.884Z,60.83
2023-04-19T05:53:22.796Z,61.58
2023-04-19T05:53:57.397Z,60.55
2023-04-19T05:54:34.496Z,60.35
2023-04-19T05:55:07.963Z,61.05
2023-04-19T05:55:45.548Z,59.22
2023-04-19T05:56:17.510Z,61.00
2023-04-19T05:56:51.888Z,59.38
2023-04-19T05:57:23.994Z,59.90
2023-04-19T05:57:57.159Z,60.50
2023-04-19T05:58:30.767Z,60.92
2023-04-19T05:59:03.834Z,59.25
2023-04-19T05:59:35.816Z,60.83
2023-04-19T06:00:09.724Z,60.45
2023-04-19T06:00:55.691Z,59.97
2023-04-19T06:01:28.986Z,62.08
2023-04-19T06:02:02.221Z,62.25
2023-04-19T06:02:34.521Z,62.30
2023-04-19T06:03:07.885Z,60.83
2023-04-19T06:03:41.189Z,61.13
2023-04-19T06:04:13.557Z,61.60
2023-04-19T06:04:46.997Z,61.05
2023-04-19T06:05:19.664Z,60.75
2023-04-19T06:05:52.724Z,63.45
2023-04-19T06:06:25.136Z,61.65
2023-04-19T06:06:57.381Z,61.20
2023-04-19T06:07:32.879Z,61.35
2023-04-19T06:08:09.812Z,61.05
2023-04-19T06:08:41.883Z,59.90
2023-04-19T06:09:18.140Z,60.78
2023-04-19T06:09:50.173Z,60.75
2023-04-19T06:10:23.681Z,61.22
2023-04-19T06:11:02.089Z,60.03
2023-04-19T06:11:49.978Z,61.13
2023-04-19T06:12:24.807Z,61.53
2023-04-19T06:12:58.100Z,61.08
2023-04-19T06:13:30.122Z,60.38
2023-04-19T06:14:02.158Z,59.88
2023-04-19T06:14:35.178Z,61.13
2023-04-19T06:15:08.666Z,58.25
2023-04-19T06:15:40.776Z,59.85
2023-04-19T06:16:13.716Z,59.05
2023-04-19T06:16:45.841Z,60.90
2023-04-19T06:17:23.452Z,60.03
2023-04-19T06:17:56.062Z,59.28
2023-04-19T06:18:29.024Z,58.75
2023-04-19T06:19:02.615Z,59.42
2023-04-19T06:19:34.627Z,58.70
2023-04-19T06:20:08.366Z,59.67
2023-04-19T06:20:42.795Z,60.17
2023-04-19T06:21:15.416Z,59.92
2023-04-19T06:21:47.761Z,59.35
2023-04-19T06:22:20.784Z,59.45
2023-04-19T06:22:52.793Z,57.70
2023-04-19T06:23:26.515Z,58.22
2023-04-19T06:23:59.525Z,57.97
2023-04-19T06:24:32.831Z,58.13
2023-04-19T06:25:06.145Z,58.88
2023-04-19T06:25:39.065Z,59.47
2023-04-19T06:26:11.024Z,58.25
2023-04-19T06:26:44.280Z,59.00
2023-04-19T06:27:16.992Z,59.30
2023-04-19T06:27:50.263Z,58.53
2023-04-19T06:28:23.174Z,58.03
2023-04-19T06:28:55.187Z,58.35
2023-04-19T06:29:28.359Z,58.92
2023-04-19T06:30:01.138Z,59.92
2023-04-19T06:30:33.138Z,58.75
2023-04-19T06:31:06.295Z,59.28
2023-04-19T06:31:38.523Z,57.70
2023-04-19T06:32:11.613Z,58.78
2023-04-19T06:32:44.517Z,58.63
2023-04-19T06:33:16.517Z,57.40
2023-04-19T06:33:49.465Z,60.08
2023-04-19T06:34:21.587Z,58.53
2023-04-19T06:34:53.567Z,58.15
2023-04-19T06:35:26.509Z,57.42
2023-04-19T06:35:58.486Z,58.17
2023-04-19T06:36:30.502Z,59.42
2023-04-19T06:37:03.799Z,58.65
2023-04-19T06:37:35.802Z,58.00
2023-04-19T06:38:07.910Z,58.47
2023-04-19T06:38:41.634Z,58.88
2023-04-19T06:39:14.825Z,58.95
2023-04-19T06:39:46.964Z,58.63
2023-04-19T06:40:20.286Z,57.85
2023-04-19T06:40:52.325Z,59.15
2023-04-19T06:41:26.001Z,58.90
2023-04-19T06:41:58.407Z,58.08
2023-04-19T06:42:30.517Z,58.08
2023-04-19T06:43:05.889Z,58.50
2023-04-19T06:43:40.613Z,58.80
2023-04-19T06:44:14.669Z,58.88
2023-04-19T06:44:46.976Z,58.97
2023-04-19T06:45:19.209Z,58.40
2023-04-19T06:45:59.586Z,58.80
2023-04-19T06:46:31.609Z,57.90
2023-04-19T06:47:04.698Z,58.05
2023-04-19T06:47:36.716Z,58.90
2023-04-19T06:48:09.179Z,58.45
2023-04-19T06:48:42.321Z,58.30
2023-04-19T06:49:14.304Z,58.65
2023-04-19T06:49:46.247Z,58.00
2023-04-19T06:50:19.315Z,59.80
2023-04-19T06:50:51.277Z,59.20
2023-04-19T06:51:24.817Z,58.10
2023-04-19T06:51:56.768Z,58.95
2023-04-19T06:52:30.260Z,58.60
2023-04-19T06:53:04.584Z,59.40
2023-04-19T06:53:37.947Z,59.28
2023-04-19T06:54:10.857Z,58.65
2023-04-19T06:54:42.951Z,58.80
2023-04-19T06:55:14.907Z,57.80
2023-04-19T06:55:48.019Z,58.78
2023-04-19T06:56:39.852Z,58.88
2023-04-19T06:57:13.176Z,59.67
2023-04-19T06:57:45.105Z,58.45
2023-04-19T06:58:19.498Z,57.72
2023-04-19T06:58:51.449Z,59.08
2023-04-19T06:59:23.373Z,58.50
2023-04-19T06:59:56.717Z,58.10
2023-04-19T07:00:28.756Z,59.30
2023-04-19T07:01:01.326Z,59.15
2023-04-19T07:01:34.375Z,58.45
2023-04-19T07:02:07.279Z,59.20
2023-04-19T07:02:39.430Z,58.58
2023-04-19T07:03:13.258Z,60.00
2023-04-19T07:03:46.314Z,59.38
2023-04-19T07:04:18.673Z,59.53
2023-04-19T07:04:52.130Z,58.40
2023-04-19T07:05:24.070Z,59.55
2023-04-19T07:05:56.525Z,59.55
2023-04-19T07:06:29.689Z,59.42
2023-04-19T07:07:01.781Z,59.08
2023-04-19T07:07:33.781Z,58.90
2023-04-19T07:08:06.837Z,59.20
2023-04-19T07:08:49.311Z,58.78
2023-04-19T07:09:23.258Z,58.47
2023-04-19T07:09:55.256Z,58.40
2023-04-19T07:10:27.333Z,58.58
2023-04-19T07:11:00.291Z,59.72
2023-04-19T07:11:32.868Z,58.72
2023-04-19T07:12:06.879Z,59.30
2023-04-19T07:12:39.264Z,59.92
2023-04-19T07:13:11.768Z,58.97
2023-04-19T07:13:46.151Z,59.30
2023-04-19T07:14:19.289Z,60.80
2023-04-19T07:14:56.299Z,59.80
2023-04-19T07:15:28.356Z,59.45